createdAt,value
2023-12-15T00:00:05.912Z,1020.68
2023-12-15T00:01:05.944Z,1020.73
2023-12-15T00:02:05.901Z,1020.76
2023-12-15T00:03:05.889Z,1020.76
2023-12-15T00:04:05.942Z,1020.80
2023-12-15T00:05:05.871Z,1020.78
2023-12-15T00:06:05.871Z,1020.78
2023-12-15T00:07:05.837Z,1020.81
2023-12-15T00:08:05.878Z,1020.78
2023-12-15T00:09:05.804Z,1020.79
2023-12-15T00:10:05.795Z,1020.82
2023-12-15T00:11:05.833Z,1020.84
2023-12-15T00:12:05.784Z,1020.85
2023-12-15T00:13:05.766Z,1020.84
2023-12-15T00:14:05.890Z,1020.86
2023-12-15T00:15:05.751Z,1020.93
2023-12-15T00:16:05.748Z,1020.91
2023-12-15T00:17:05.759Z,1020.88
2023-12-15T00:18:05.850Z,1020.90
2023-12-15T00:19:05.759Z,1020.89
2023-12-15T00:20:05.741Z,1020.94
2023-12-15T00:21:05.708Z,1020.93
2023-12-15T00:22:05.685Z,1020.98
2023-12-15T00:23:05.737Z,1020.98
2023-12-15T00:24:05.672Z,1020.96
2023-12-15T00:25:05.650Z,1020.96
2023-12-15T00:26:05.673Z,1020.95
2023-12-15T00:27:05.620Z,1020.96
2023-12-15T00:28:05.631Z,1020.90
2023-12-15T00:29:05.651Z,1020.90
2023-12-15T00:30:05.579Z,1020.92
2023-12-15T00:31:05.619Z,1020.92
2023-12-15T00:32:05.576Z,1021.00
2023-12-15T00:33:05.596Z,1020.98
2023-12-15T00:34:05.588Z,1021.04
2023-12-15T00:35:05.630Z,1021.03
2023-12-15T00:36:05.562Z,1021.06
2023-12-15T00:37:05.511Z,1021.06
2023-12-15T00:38:05.541Z,1021.16
2023-12-15T00:39:05.480Z,1021.14
2023-12-15T00:40:05.505Z,1021.19
2023-12-15T00:41:05.514Z,1021.18
2023-12-15T00:42:05.454Z,1021.15
2023-12-15T00:43:05.438Z,1021.17
2023-12-15T00:44:05.469Z,1021.17
2023-12-15T00:45:05.524Z,1021.23
2023-12-15T00:46:05.408Z,1021.21
2023-12-15T00:47:05.439Z,1021.27
2023-12-15T00:48:05.514Z,1021.25
2023-12-15T00:49:05.488Z,1021.27
2023-12-15T00:50:05.429Z,1021.31
2023-12-15T00:51:05.368Z,1021.34
2023-12-15T00:52:05.381Z,1021.33
2023-12-15T00:53:05.363Z,1021.31
2023-12-15T00:54:05.329Z,1021.31
2023-12-15T00:55:05.347Z,1021.29
2023-12-15T00:56:05.376Z,1021.28
2023-12-15T00:57:05.294Z,1021.31
2023-12-15T00:58:05.296Z,1021.30
2023-12-15T00:59:05.352Z,1021.33
2023-12-15T01:00:05.255Z,1021.30
2023-12-15T01:01:05.316Z,1021.34
2023-12-15T01:02:05.277Z,1021.36
2023-12-15T01:03:05.275Z,1021.39
2023-12-15T01:04:05.261Z,1021.38
2023-12-15T01:05:05.338Z,1021.40
2023-12-15T01:06:05.246Z,1021.45
2023-12-15T01:07:05.183Z,1021.50
2023-12-15T01:08:05.223Z,1021.46
2023-12-15T01:09:05.172Z,1021.52
2023-12-15T01:10:05.166Z,1021.54
2023-12-15T01:11:05.163Z,1021.55
2023-12-15T01:12:05.147Z,1021.57
2023-12-15T01:13:05.173Z,1021.59
2023-12-15T01:14:05.146Z,1021.58
2023-12-15T01:15:05.104Z,1021.63
2023-12-15T01:16:05.080Z,1021.62
2023-12-15T01:17:05.116Z,1021.67
2023-12-15T01:18:05.212Z,1021.62
2023-12-15T01:19:05.167Z,1021.68
2023-12-15T01:20:05.102Z,1021.67
2023-12-15T01:21:05.044Z,1021.66
2023-12-15T01:22:05.027Z,1021.66
2023-12-15T01:23:05.067Z,1021.65
2023-12-15T01:24:04.995Z,1021.65
2023-12-15T01:25:05.001Z,1021.64
2023-12-15T01:26:04.996Z,1021.68
2023-12-15T01:27:04.991Z,1021.64
2023-12-15T01:28:04.980Z,1021.67
2023-12-15T01:29:04.961Z,1021.64
2023-12-15T01:30:04.939Z,1021.61
2023-12-15T01:31:05.070Z,1021.63
2023-12-15T01:32:05.002Z,1021.56
2023-12-15T01:33:04.940Z,1021.59
2023-12-15T01:34:04.942Z,1021.62
2023-12-15T01:35:04.932Z,1021.59
2023-12-15T01:36:04.878Z,1021.63
2023-12-15T01:37:04.874Z,1021.63
2023-12-15T01:38:04.877Z,1021.66
2023-12-15T01:39:04.836Z,1021.68
2023-12-15T01:40:04.828Z,1021.70
2023-12-15T01:41:04.860Z,1021.70
2023-12-15T01:42:04.811Z,1021.75
2023-12-15T01:43:04.804Z,1021.77
2023-12-15T01:44:04.854Z,1021.74
2023-12-15T01:45:04.767Z,1021.81
2023-12-15T01:46:09.135Z,1021.78
2023-12-15T01:47:05.789Z,1021.81
2023-12-15T01:48:04.820Z,1021.84
2023-12-15T01:49:04.903Z,1021.85
2023-12-15T01:50:04.752Z,1021.88
2023-12-15T01:51:04.719Z,1021.90
2023-12-15T01:52:04.702Z,1021.94
2023-12-15T01:53:04.727Z,1021.95
2023-12-15T01:54:04.678Z,1021.97
2023-12-15T01:55:04.677Z,1022.00
2023-12-15T01:56:04.726Z,1022.01
2023-12-15T01:57:04.650Z,1022.01
2023-12-15T01:58:04.660Z,1022.08
2023-12-15T01:59:04.669Z,1022.14
2023-12-15T02:00:04.680Z,1022.07
2023-12-15T02:01:04.665Z,1022.15
2023-12-15T02:02:04.635Z,1022.19
2023-12-15T02:03:04.580Z,1022.14
2023-12-15T02:04:04.689Z,1022.12
2023-12-15T02:05:04.665Z,1022.13
2023-12-15T02:06:04.631Z,1022.11
2023-12-15T02:07:04.541Z,1022.17
2023-12-15T02:08:04.554Z,1022.14
2023-12-15T02:09:04.544Z,1022.18
2023-12-15T02:10:04.513Z,1022.13
2023-12-15T02:11:04.665Z,1022.14
2023-12-15T02:12:04.507Z,1022.18
2023-12-15T02:13:04.473Z,1022.10
2023-12-15T02:14:04.511Z,1022.05
2023-12-15T02:15:04.608Z,1022.10
2023-12-15T02:16:04.468Z,1022.11
2023-12-15T02:17:04.537Z,1022.11
2023-12-15T02:18:04.567Z,1022.15
2023-12-15T02:19:04.717Z,1022.19
2023-12-15T02:20:04.468Z,1022.14
2023-12-15T02:21:04.515Z,1022.17
2023-12-15T02:22:04.430Z,1022.18
2023-12-15T02:23:04.507Z,1022.21
2023-12-15T02:24:04.373Z,1022.19
2023-12-15T02:25:04.412Z,1022.22
2023-12-15T02:26:04.356Z,1022.20
2023-12-15T02:27:04.428Z,1022.23
2023-12-15T02:28:04.395Z,1022.25
2023-12-15T02:29:04.332Z,1022.27
2023-12-15T02:30:04.315Z,1022.27
2023-12-15T02:31:04.328Z,1022.22
2023-12-15T02:32:04.371Z,1022.27
2023-12-15T02:33:04.500Z,1022.28
2023-12-15T02:34:04.340Z,1022.24
2023-12-15T02:35:04.279Z,1022.28
2023-12-15T02:36:04.246Z,1022.26
2023-12-15T02:37:04.238Z,1022.22
2023-12-15T02:38:04.244Z,1022.23
2023-12-15T02:39:04.251Z,1022.26
2023-12-15T02:40:04.197Z,1022.26
2023-12-15T02:41:04.193Z,1022.29
2023-12-15T02:42:04.180Z,1022.27
2023-12-15T02:43:04.159Z,1022.34
2023-12-15T02:44:04.158Z,1022.36
2023-12-15T02:45:04.147Z,1022.34
2023-12-15T02:46:04.140Z,1022.37
2023-12-15T02:47:04.155Z,1022.43
2023-12-15T02:48:04.282Z,1022.41
2023-12-15T02:49:04.275Z,1022.44
2023-12-15T02:50:04.117Z,1022.48
2023-12-15T02:51:04.082Z,1022.49
2023-12-15T02:52:04.066Z,1022.48
2023-12-15T02:53:04.054Z,1022.46
2023-12-15T02:54:04.043Z,1022.49
2023-12-15T02:55:04.022Z,1022.55
2023-12-15T02:56:04.077Z,1022.52
2023-12-15T02:57:04.014Z,1022.54
2023-12-15T02:58:04.043Z,1022.61
2023-12-15T02:59:04.013Z,1022.62
2023-12-15T03:00:04.023Z,1022.63
2023-12-15T03:01:04.045Z,1022.67
2023-12-15T03:02:03.977Z,1022.69
2023-12-15T03:03:04.075Z,1022.71
2023-12-15T03:04:03.956Z,1022.68
2023-12-15T03:05:04.027Z,1022.74
2023-12-15T03:06:03.937Z,1022.66
2023-12-15T03:07:03.930Z,1022.65
2023-12-15T03:08:03.895Z,1022.66
2023-12-15T03:09:03.876Z,1022.64
2023-12-15T03:10:03.930Z,1022.67
2023-12-15T03:11:03.901Z,1022.69
2023-12-15T03:12:03.854Z,1022.69
2023-12-15T03:13:03.838Z,1022.72
2023-12-15T03:14:03.970Z,1022.74
2023-12-15T03:15:03.881Z,1022.73
2023-12-15T03:16:03.800Z,1022.75
2023-12-15T03:17:03.824Z,1022.74
2023-12-15T03:18:03.803Z,1022.75
2023-12-15T03:19:03.826Z,1022.76
2023-12-15T03:20:03.929Z,1022.74
2023-12-15T03:21:03.762Z,1022.74
2023-12-15T03:22:03.762Z,1022.73
2023-12-15T03:23:03.781Z,1022.73
2023-12-15T03:24:03.755Z,1022.86
2023-12-15T03:25:03.737Z,1022.83
2023-12-15T03:26:03.770Z,1022.87
2023-12-15T03:27:03.685Z,1022.87
2023-12-15T03:28:03.706Z,1022.87
2023-12-15T03:29:03.728Z,1022.86
2023-12-15T03:30:03.652Z,1022.85
2023-12-15T03:31:03.644Z,1022.89
2023-12-15T03:32:03.727Z,1022.86
2023-12-15T03:33:03.729Z,1022.89
2023-12-15T03:34:03.663Z,1022.91
2023-12-15T03:35:03.649Z,1022.89
2023-12-15T03:36:03.621Z,1022.88
2023-12-15T03:37:03.582Z,1022.93
2023-12-15T03:38:03.608Z,1022.90
2023-12-15T03:39:03.557Z,1022.87
2023-12-15T03:40:03.550Z,1022.86
2023-12-15T03:41:03.565Z,1022.85
2023-12-15T03:42:03.557Z,1022.82
2023-12-15T03:43:03.537Z,1022.87
2023-12-15T03:44:03.524Z,1022.92
2023-12-15T03:45:03.494Z,1022.92
2023-12-15T03:46:03.500Z,1022.96
2023-12-15T03:47:03.498Z,1022.95
2023-12-15T03:48:03.519Z,1022.95
2023-12-15T03:49:03.476Z,1023.01
2023-12-15T03:50:03.511Z,1022.97
2023-12-15T03:51:03.430Z,1023.01
2023-12-15T03:52:03.484Z,1022.98
2023-12-15T03:53:03.534Z,1022.97
2023-12-15T03:54:03.410Z,1022.95
2023-12-15T03:55:03.389Z,1022.97
2023-12-15T03:56:03.431Z,1022.95
2023-12-15T03:57:03.390Z,1022.94
2023-12-15T03:58:03.365Z,1022.96
2023-12-15T03:59:03.369Z,1023.00
2023-12-15T04:00:03.346Z,1023.03
2023-12-15T04:01:03.404Z,1023.02
2023-12-15T04:02:03.342Z,1023.09
2023-12-15T04:03:03.320Z,1023.06
2023-12-15T04:04:03.300Z,1023.11
2023-12-15T04:05:03.445Z,1023.08
2023-12-15T04:06:03.557Z,1023.07
2023-12-15T04:07:03.266Z,1023.11
2023-12-15T04:08:03.336Z,1023.12
2023-12-15T04:09:03.259Z,1023.03
2023-12-15T04:10:03.268Z,1023.14
2023-12-15T04:11:03.341Z,1023.06
2023-12-15T04:12:03.213Z,1023.08
2023-12-15T04:13:03.202Z,1023.08
2023-12-15T04:14:03.215Z,1023.12
2023-12-15T04:15:03.210Z,1023.15
2023-12-15T04:16:03.180Z,1023.16
2023-12-15T04:17:03.187Z,1023.15
2023-12-15T04:18:03.346Z,1023.13
2023-12-15T04:19:03.288Z,1023.12
2023-12-15T04:20:03.271Z,1023.14
2023-12-15T04:21:03.125Z,1023.17
2023-12-15T04:22:03.111Z,1023.19
2023-12-15T04:23:03.126Z,1023.15
2023-12-15T04:24:03.123Z,1023.13
2023-12-15T04:25:03.170Z,1023.15
2023-12-15T04:26:03.093Z,1023.15
2023-12-15T04:27:03.104Z,1023.16
2023-12-15T04:28:03.048Z,1023.19
2023-12-15T04:29:03.099Z,1023.19
2023-12-15T04:30:03.038Z,1023.21
2023-12-15T04:31:03.015Z,1023.19
2023-12-15T04:32:03.056Z,1023.23
2023-12-15T04:33:03.086Z,1023.21
2023-12-15T04:34:03.034Z,1023.27
2023-12-15T04:35:02.997Z,1023.28
2023-12-15T04:36:02.967Z,1023.31
2023-12-15T04:37:02.958Z,1023.39
2023-12-15T04:38:02.989Z,1023.37
2023-12-15T04:39:02.943Z,1023.38
2023-12-15T04:40:02.949Z,1023.32
2023-12-15T04:41:02.935Z,1023.34
2023-12-15T04:42:02.898Z,1023.30
2023-12-15T04:43:02.942Z,1023.33
2023-12-15T04:44:02.908Z,1023.36
2023-12-15T04:45:02.868Z,1023.38
2023-12-15T04:46:02.869Z,1023.38
2023-12-15T04:47:02.860Z,1023.38
2023-12-15T04:48:02.929Z,1023.40
2023-12-15T04:49:02.986Z,1023.39
2023-12-15T04:50:02.834Z,1023.37
2023-12-15T04:51:02.799Z,1023.36
2023-12-15T04:52:02.805Z,1023.34
2023-12-15T04:53:02.885Z,1023.32
2023-12-15T04:54:02.793Z,1023.33
2023-12-15T04:55:02.759Z,1023.31
2023-12-15T04:56:02.782Z,1023.39
2023-12-15T04:57:02.766Z,1023.37
2023-12-15T04:58:02.740Z,1023.34
2023-12-15T04:59:02.742Z,1023.35
2023-12-15T05:00:02.700Z,1023.38
2023-12-15T05:01:02.713Z,1023.40
2023-12-15T05:02:02.727Z,1023.42
2023-12-15T05:03:02.716Z,1023.47
2023-12-15T05:04:02.665Z,1023.44
2023-12-15T05:05:02.703Z,1023.48
2023-12-15T05:06:02.720Z,1023.48
2023-12-15T05:07:02.652Z,1023.47
2023-12-15T05:08:02.655Z,1023.44
2023-12-15T05:09:02.618Z,1023.48
2023-12-15T05:10:02.614Z,1023.45
2023-12-15T05:11:02.651Z,1023.48
2023-12-15T05:12:02.616Z,1023.49
2023-12-15T05:13:02.563Z,1023.52
2023-12-15T05:14:02.575Z,1023.52
2023-12-15T05:15:02.547Z,1023.52
2023-12-15T05:16:02.598Z,1023.58
2023-12-15T05:17:02.566Z,1023.54
2023-12-15T05:18:02.639Z,1023.54
2023-12-15T05:19:02.581Z,1023.59
2023-12-15T05:20:02.599Z,1023.58
2023-12-15T05:21:02.486Z,1023.60
2023-12-15T05:22:02.475Z,1023.57
2023-12-15T05:23:02.484Z,1023.60
2023-12-15T05:24:02.457Z,1023.64
2023-12-15T05:25:02.450Z,1023.63
2023-12-15T05:26:02.465Z,1023.65
2023-12-15T05:27:02.442Z,1023.65
2023-12-15T05:28:02.417Z,1023.69
2023-12-15T05:29:02.466Z,1023.69
2023-12-15T05:30:02.425Z,1023.67
2023-12-15T05:31:02.444Z,1023.71
2023-12-15T05:32:02.379Z,1023.74
2023-12-15T05:33:02.431Z,1023.73
2023-12-15T05:34:02.409Z,1023.73
2023-12-15T05:35:04.607Z,1023.78
2023-12-15T05:36:02.319Z,1023.83
2023-12-15T05:37:02.306Z,1023.84
2023-12-15T05:38:02.487Z,1023.77
2023-12-15T05:39:02.298Z,1023.81
2023-12-15T05:40:02.286Z,1023.80
2023-12-15T05:41:02.362Z,1023.80
2023-12-15T05:42:02.250Z,1023.81
2023-12-15T05:43:02.255Z,1023.82
2023-12-15T05:44:02.330Z,1023.82
2023-12-15T05:45:02.220Z,1023.76
2023-12-15T05:46:02.232Z,1023.80
2023-12-15T05:47:02.279Z,1023.79
2023-12-15T05:48:02.431Z,1023.85
2023-12-15T05:49:02.344Z,1023.84
2023-12-15T05:50:02.297Z,1023.85
2023-12-15T05:51:02.182Z,1023.87
2023-12-15T05:52:02.144Z,1023.92
2023-12-15T05:53:02.185Z,1023.94
2023-12-15T05:54:02.162Z,1023.93
2023-12-15T05:55:02.127Z,1023.89
2023-12-15T05:56:02.158Z,1023.96
2023-12-15T05:57:02.103Z,1023.93
2023-12-15T05:58:02.160Z,1023.90
2023-12-15T05:59:02.150Z,1023.95
2023-12-15T06:00:02.185Z,1023.90
2023-12-15T06:01:02.070Z,1023.94
2023-12-15T06:02:02.080Z,1023.89
2023-12-15T06:03:02.066Z,1023.91
2023-12-15T06:04:02.034Z,1023.91
2023-12-15T06:05:02.173Z,1023.90
2023-12-15T06:06:02.098Z,1023.87
2023-12-15T06:07:02.023Z,1023.86
2023-12-15T06:08:02.010Z,1023.89
2023-12-15T06:09:01.975Z,1023.95
2023-12-15T06:10:01.953Z,1024.03
2023-12-15T06:11:02.022Z,1024.07
2023-12-15T06:12:01.957Z,1024.13
2023-12-15T06:13:01.927Z,1024.08
2023-12-15T06:14:01.956Z,1024.10
2023-12-15T06:15:01.918Z,1024.14
2023-12-15T06:16:01.917Z,1024.19
2023-12-15T06:17:01.928Z,1024.23
2023-12-15T06:18:02.037Z,1024.29
2023-12-15T06:19:01.927Z,1024.27
2023-12-15T06:20:01.953Z,1024.27
2023-12-15T06:21:01.860Z,1024.27
2023-12-15T06:22:01.849Z,1024.27
2023-12-15T06:23:01.839Z,1024.34
2023-12-15T06:24:01.817Z,1024.31
2023-12-15T06:25:01.806Z,1024.39
2023-12-15T06:26:01.852Z,1024.40
2023-12-15T06:27:01.778Z,1024.39
2023-12-15T06:28:01.762Z,1024.45
2023-12-15T06:29:01.809Z,1024.46
2023-12-15T06:30:01.746Z,1024.43
2023-12-15T06:31:01.850Z,1024.37
2023-12-15T06:32:01.895Z,1024.38
2023-12-15T06:33:01.742Z,1024.37
2023-12-15T06:34:01.746Z,1024.38
2023-12-15T06:35:01.762Z,1024.36
2023-12-15T06:36:01.679Z,1024.34
2023-12-15T06:37:01.813Z,1024.36
2023-12-15T06:38:01.688Z,1024.39
2023-12-15T06:39:01.674Z,1024.38
2023-12-15T06:40:01.677Z,1024.48
2023-12-15T06:41:01.683Z,1024.44
2023-12-15T06:42:01.615Z,1024.49
2023-12-15T06:43:01.615Z,1024.48
2023-12-15T06:44:01.646Z,1024.53
2023-12-15T06:45:01.633Z,1024.54
2023-12-15T06:46:01.567Z,1024.57
2023-12-15T06:47:01.613Z,1024.57
2023-12-15T06:48:01.727Z,1024.60
2023-12-15T06:49:01.607Z,1024.66
2023-12-15T06:50:01.558Z,1024.69
2023-12-15T06:51:01.516Z,1024.75
2023-12-15T06:52:01.506Z,1024.72
2023-12-15T06:53:01.510Z,1024.80
2023-12-15T06:54:01.501Z,1024.81
2023-12-15T06:55:01.484Z,1024.82
2023-12-15T06:56:01.517Z,1024.85
2023-12-15T06:57:01.451Z,1024.80
2023-12-15T06:58:01.438Z,1024.80
2023-12-15T06:59:01.525Z,1024.75
2023-12-15T07:00:01.417Z,1024.76
2023-12-15T07:01:01.447Z,1024.74
2023-12-15T07:02:01.431Z,1024.78
2023-12-15T07:03:01.425Z,1024.80
2023-12-15T07:04:01.512Z,1024.82
2023-12-15T07:05:01.581Z,1024.87
2023-12-15T07:06:01.469Z,1024.92
2023-12-15T07:07:01.355Z,1024.91
2023-12-15T07:08:01.395Z,1024.92
2023-12-15T07:09:01.324Z,1024.88
2023-12-15T07:10:01.318Z,1024.91
2023-12-15T07:11:01.317Z,1024.95
2023-12-15T07:12:01.298Z,1024.97
2023-12-15T07:13:01.323Z,1024.97
2023-12-15T07:14:01.299Z,1024.97
2023-12-15T07:15:01.258Z,1024.97
2023-12-15T07:16:02.942Z,1025.06
2023-12-15T07:17:01.291Z,1025.04
2023-12-15T07:18:01.366Z,1025.01
2023-12-15T07:19:01.414Z,1024.98
2023-12-15T07:20:01.273Z,1024.95
2023-12-15T07:21:01.218Z,1024.97
2023-12-15T07:22:01.205Z,1024.94
2023-12-15T07:23:01.191Z,1024.96
2023-12-15T07:24:01.164Z,1024.99
2023-12-15T07:25:01.186Z,1025.01
2023-12-15T07:26:01.196Z,1024.97
2023-12-15T07:27:01.158Z,1025.02
2023-12-15T07:28:01.133Z,1024.99
2023-12-15T07:29:01.141Z,1025.01
2023-12-15T07:30:01.106Z,1024.97
2023-12-15T07:31:01.134Z,1025.03
2023-12-15T07:32:01.123Z,1025.07
2023-12-15T07:33:01.242Z,1025.03
2023-12-15T07:34:01.208Z,1025.04
2023-12-15T07:35:01.072Z,1025.07
2023-12-15T07:36:01.163Z,1025.06
2023-12-15T07:37:01.041Z,1025.05
2023-12-15T07:38:01.156Z,1025.11
2023-12-15T07:39:01.005Z,1025.11
2023-12-15T07:40:00.991Z,1025.08
2023-12-15T07:41:01.041Z,1025.11
2023-12-15T07:42:00.972Z,1025.11
2023-12-15T07:43:00.959Z,1025.11
2023-12-15T07:44:01.016Z,1025.10
2023-12-15T07:45:00.968Z,1025.12
2023-12-15T07:46:00.957Z,1025.13
2023-12-15T07:47:00.932Z,1025.10
2023-12-15T07:48:01.085Z,1025.12
2023-12-15T07:49:00.978Z,1025.14
2023-12-15T07:50:00.955Z,1025.11
2023-12-15T07:51:00.875Z,1025.08
2023-12-15T07:52:00.889Z,1025.14
2023-12-15T07:53:00.945Z,1025.14
2023-12-15T07:54:00.876Z,1025.16
2023-12-15T07:55:00.873Z,1025.11
2023-12-15T07:56:00.884Z,1025.16
2023-12-15T07:57:00.817Z,1025.17
2023-12-15T07:58:00.800Z,1025.14
2023-12-15T07:59:00.818Z,1025.17
2023-12-15T08:00:00.813Z,1025.21
2023-12-15T08:01:00.769Z,1025.19
2023-12-15T08:02:00.785Z,1025.23
2023-12-15T08:03:00.758Z,1025.26
2023-12-15T08:04:00.767Z,1025.28
2023-12-15T08:05:00.818Z,1025.44
2023-12-15T08:06:00.844Z,1025.48
2023-12-15T08:07:00.715Z,1025.48
2023-12-15T08:08:00.781Z,1025.49
2023-12-15T08:09:00.714Z,1025.44
2023-12-15T08:10:00.703Z,1025.37
2023-12-15T08:11:02.194Z,1025.36
2023-12-15T08:12:00.661Z,1025.37
2023-12-15T08:13:00.682Z,1025.35
2023-12-15T08:14:00.739Z,1025.36
2023-12-15T08:15:00.621Z,1025.32
2023-12-15T08:16:00.621Z,1025.29
2023-12-15T08:17:00.624Z,1025.30
2023-12-15T08:18:00.722Z,1025.31
2023-12-15T08:19:00.709Z,1025.36
2023-12-15T08:20:00.631Z,1025.29
2023-12-15T08:21:00.568Z,1025.32
2023-12-15T08:22:00.724Z,1025.30
2023-12-15T08:23:00.629Z,1025.31
2023-12-15T08:24:01.452Z,1025.33
2023-12-15T08:25:00.529Z,1025.33
2023-12-15T08:26:00.588Z,1025.36
2023-12-15T08:27:00.523Z,1025.38
2023-12-15T08:28:00.523Z,1025.40
2023-12-15T08:29:00.537Z,1025.36
2023-12-15T08:30:00.509Z,1025.38
2023-12-15T08:31:00.594Z,1025.35
2023-12-15T08:32:00.528Z,1025.32
2023-12-15T08:33:00.661Z,1025.27
2023-12-15T08:34:00.576Z,1025.22
2023-12-15T08:35:00.486Z,1025.22
2023-12-15T08:36:00.411Z,1025.22
2023-12-15T08:37:00.428Z,1025.22
2023-12-15T08:38:00.465Z,1025.22
2023-12-15T08:39:00.375Z,1025.24
2023-12-15T08:40:00.384Z,1025.22
2023-12-15T08:41:00.599Z,1025.22
2023-12-15T08:42:00.349Z,1025.25
2023-12-15T08:43:00.339Z,1025.28
2023-12-15T08:44:00.352Z,1025.27
2023-12-15T08:45:00.410Z,1025.26
2023-12-15T08:46:00.329Z,1025.25
2023-12-15T08:47:00.358Z,1025.26
2023-12-15T08:48:00.540Z,1025.21
2023-12-15T08:49:00.480Z,1025.22
2023-12-15T08:50:00.386Z,1025.22
2023-12-15T08:51:00.271Z,1025.23
2023-12-15T08:52:00.234Z,1025.25
2023-12-15T08:53:00.265Z,1025.26
2023-12-15T08:54:00.246Z,1025.31
2023-12-15T08:55:00.298Z,1025.34
2023-12-15T08:56:00.297Z,1025.33
2023-12-15T08:57:00.290Z,1025.38
2023-12-15T08:58:00.171Z,1025.37
2023-12-15T08:59:00.170Z,1025.43
2023-12-15T09:00:00.327Z,1025.47
2023-12-15T09:01:00.184Z,1025.47
2023-12-15T09:02:00.219Z,1025.49
2023-12-15T09:03:00.175Z,1025.56
2023-12-15T09:04:00.111Z,1025.58
2023-12-15T09:05:04.179Z,1025.60
2023-12-15T09:06:23.960Z,1025.62
2023-12-15T09:07:01.153Z,1025.63
2023-12-15T09:08:00.189Z,1025.61
2023-12-15T09:09:00.161Z,1025.67
2023-12-15T09:10:00.074Z,1025.70
2023-12-15T09:11:00.061Z,1025.73
2023-12-15T09:12:00.049Z,1025.74
2023-12-15T09:13:00.010Z,1025.79
2023-12-15T09:14:00.094Z,1025.75
2023-12-15T09:14:59.985Z,1025.74
2023-12-15T09:16:00.032Z,1025.80
2023-12-15T09:16:59.991Z,1025.85
2023-12-15T09:18:00.080Z,1025.85
2023-12-15T09:19:00.062Z,1025.88
2023-12-15T09:19:59.960Z,1025.90
2023-12-15T09:20:59.932Z,1025.88
2023-12-15T09:21:59.913Z,1025.93
2023-12-15T09:22:59.968Z,1025.92
2023-12-15T09:23:59.934Z,1025.97
2023-12-15T09:24:59.875Z,1026.04
2023-12-15T09:25:59.897Z,1026.04
2023-12-15T09:26:59.872Z,1026.04
2023-12-15T09:27:59.927Z,1026.08
2023-12-15T09:28:59.871Z,1026.10
2023-12-15T09:29:59.856Z,1026.13
2023-12-15T09:30:59.817Z,1026.10
2023-12-15T09:31:59.807Z,1026.10
2023-12-15T09:32:59.939Z,1026.08
2023-12-15T09:33:59.856Z,1026.08
2023-12-15T09:34:59.854Z,1026.09
2023-12-15T09:35:59.767Z,1026.11
2023-12-15T09:36:59.758Z,1026.12
2023-12-15T09:37:59.792Z,1026.12
2023-12-15T09:39:02.503Z,1026.11
2023-12-15T09:39:59.789Z,1026.08
2023-12-15T09:40:59.774Z,1026.06
2023-12-15T09:41:59.710Z,1026.09
2023-12-15T09:42:59.702Z,1026.14
2023-12-15T09:43:59.738Z,1026.13
2023-12-15T09:45:06.749Z,1026.21
2023-12-15T09:46:00.649Z,1026.20
2023-12-15T09:46:59.711Z,1026.23
2023-12-15T09:47:59.761Z,1026.23
2023-12-15T09:48:59.676Z,1026.21
2023-12-15T09:49:59.618Z,1026.16
2023-12-15T09:50:59.630Z,1026.21
2023-12-15T09:51:59.613Z,1026.17
2023-12-15T09:52:59.613Z,1026.16
2023-12-15T09:53:59.565Z,1026.11
2023-12-15T09:54:59.551Z,1026.12
2023-12-15T09:55:59.608Z,1026.11
2023-12-15T09:56:59.556Z,1026.09
2023-12-15T09:57:59.600Z,1026.13
2023-12-15T09:58:59.565Z,1026.14
2023-12-15T09:59:59.514Z,1026.20
2023-12-15T10:00:59.564Z,1026.17
2023-12-15T10:01:59.558Z,1026.14
2023-12-15T10:02:59.661Z,1026.22
2023-12-15T10:03:59.482Z,1026.21
2023-12-15T10:04:59.474Z,1026.22
2023-12-15T10:05:59.465Z,1026.28
2023-12-15T10:06:59.426Z,1026.27
2023-12-15T10:07:59.443Z,1026.28
2023-12-15T10:09:02.655Z,1026.32
2023-12-15T10:09:59.396Z,1026.26
2023-12-15T10:10:59.418Z,1026.30
2023-12-15T10:11:59.375Z,1026.27
2023-12-15T10:12:59.364Z,1026.30
2023-12-15T10:13:59.389Z,1026.25
2023-12-15T10:14:59.398Z,1026.29
2023-12-15T10:15:59.370Z,1026.25
2023-12-15T10:16:59.340Z,1026.29
2023-12-15T10:17:59.850Z,1026.29
2023-12-15T10:18:59.470Z,1026.31
2023-12-15T10:19:59.379Z,1026.29
2023-12-15T10:20:59.317Z,1026.29
2023-12-15T10:21:59.267Z,1026.29
2023-12-15T10:22:59.265Z,1026.27
2023-12-15T10:23:59.242Z,1026.32
2023-12-15T10:24:59.259Z,1026.31
2023-12-15T10:25:59.316Z,1026.30
2023-12-15T10:26:59.224Z,1026.32
2023-12-15T10:28:01.560Z,1026.32
2023-12-15T10:28:59.239Z,1026.30
2023-12-15T10:29:59.199Z,1026.29
2023-12-15T10:30:59.199Z,1026.31
2023-12-15T10:31:59.242Z,1026.29
2023-12-15T10:32:59.601Z,1026.28
2023-12-15T10:34:01.444Z,1026.25
2023-12-15T10:34:59.135Z,1026.27
2023-12-15T10:35:59.117Z,1026.28
2023-12-15T10:36:59.100Z,1026.29
2023-12-15T10:37:59.179Z,1026.31
2023-12-15T10:38:59.106Z,1026.34
2023-12-15T10:40:02.638Z,1026.36
2023-12-15T10:40:59.104Z,1026.38
2023-12-15T10:41:59.051Z,1026.41
2023-12-15T10:42:59.090Z,1026.38
2023-12-15T10:43:59.066Z,1026.32
2023-12-15T10:44:59.018Z,1026.34
2023-12-15T10:46:01.718Z,1026.33
2023-12-15T10:46:59.014Z,1026.34
2023-12-15T10:47:59.370Z,1026.36
2023-12-15T10:48:59.076Z,1026.33
2023-12-15T10:49:59.119Z,1026.31
2023-12-15T10:50:58.971Z,1026.30
2023-12-15T10:52:00.762Z,1026.30
2023-12-15T10:52:58.996Z,1026.26
2023-12-15T10:53:58.919Z,1026.22
2023-12-15T10:54:58.915Z,1026.23
2023-12-15T10:55:58.957Z,1026.29
2023-12-15T10:56:58.902Z,1026.25
2023-12-15T10:58:01.255Z,1026.24
2023-12-15T10:58:58.922Z,1026.28
2023-12-15T10:59:58.861Z,1026.24
2023-12-15T11:00:59.147Z,1026.25
2023-12-15T11:01:58.864Z,1026.19
2023-12-15T11:02:58.819Z,1026.22
2023-12-15T11:04:00.329Z,1026.17
2023-12-15T11:04:58.827Z,1026.24
2023-12-15T11:05:58.848Z,1026.18
2023-12-15T11:06:58.853Z,1026.19
2023-12-15T11:07:58.785Z,1026.18
2023-12-15T11:08:58.755Z,1026.19
2023-12-15T11:10:00.856Z,1026.23
2023-12-15T11:10:58.829Z,1026.25
2023-12-15T11:11:58.775Z,1026.24
2023-12-15T11:12:58.714Z,1026.29
2023-12-15T11:13:58.858Z,1026.25
2023-12-15T11:14:58.689Z,1026.28
2023-12-15T11:15:58.689Z,1026.29
2023-12-15T11:16:58.764Z,1026.32
2023-12-15T11:17:58.894Z,1026.31
2023-12-15T11:18:58.820Z,1026.28
2023-12-15T11:19:58.764Z,1026.29
2023-12-15T11:20:58.662Z,1026.26
2023-12-15T11:21:58.610Z,1026.28
2023-12-15T11:22:58.858Z,1026.27
2023-12-15T11:23:58.603Z,1026.26
2023-12-15T11:24:58.581Z,1026.24
2023-12-15T11:25:58.612Z,1026.30
2023-12-15T11:26:58.558Z,1026.31
2023-12-15T11:27:58.552Z,1026.32
2023-12-15T11:28:58.544Z,1026.30
2023-12-15T11:29:58.555Z,1026.33
2023-12-15T11:30:58.586Z,1026.26
2023-12-15T11:31:58.520Z,1026.23
2023-12-15T11:32:58.652Z,1026.22
2023-12-15T11:33:58.545Z,1026.25
2023-12-15T11:34:58.522Z,1026.21
2023-12-15T11:35:58.490Z,1026.29
2023-12-15T11:36:58.455Z,1026.31
2023-12-15T11:37:58.508Z,1026.31
2023-12-15T11:38:58.441Z,1026.32
2023-12-15T11:39:58.442Z,1026.32
2023-12-15T11:40:58.415Z,1026.35
2023-12-15T11:41:58.404Z,1026.36
2023-12-15T11:42:58.400Z,1026.36
2023-12-15T11:43:58.424Z,1026.31
2023-12-15T11:44:58.441Z,1026.35
2023-12-15T11:45:58.362Z,1026.32
2023-12-15T11:46:58.351Z,1026.33
2023-12-15T11:47:58.453Z,1026.26
2023-12-15T11:48:58.459Z,1026.25
2023-12-15T11:49:58.318Z,1026.25
2023-12-15T11:50:58.316Z,1026.21
2023-12-15T11:51:58.312Z,1026.23
2023-12-15T11:52:58.286Z,1026.22
2023-12-15T11:53:58.282Z,1026.26
2023-12-15T11:54:58.272Z,1026.31
2023-12-15T11:55:58.248Z,1026.32
2023-12-15T11:56:58.236Z,1026.29
2023-12-15T11:57:58.244Z,1026.32
2023-12-15T11:58:58.252Z,1026.37
2023-12-15T11:59:58.205Z,1026.29
2023-12-15T12:00:58.209Z,1026.24
2023-12-15T12:01:58.181Z,1026.25
2023-12-15T12:02:58.192Z,1026.26
2023-12-15T12:03:58.200Z,1026.24
2023-12-15T12:04:58.155Z,1026.27